Time;durP1;ratioP1;P1;durP2;ratioP2;P2;SDS_P1;SDS_P2;PMS_P1;PMS_P2;Temp;Humidity;BMP_temperature;BMP_pressure;BME280_temperature;BME280_humidity;BME280_pressure;Samples;Min_cycle;Max_cycle;Signal;HPM_P1;HPM_P2
2021/01/24 00:02:25;;;;;;;31.03;18.53;;;;;;;0.65;96.71;99493.06;5076426;28;20132;-74
2021/01/24 00:04:50;;;;;;;34.58;21.02;;;;;;;0.66;97.51;99492.03;5076221;28;20020;-75
2021/01/24 00:07:16;;;;;;;39.10;22.53;;;;;;;0.69;97.62;99502.28;5079429;28;20069;-74
2021/01/24 00:09:41;;;;;;;38.93;21.80;;;;;;;0.70;97.62;99503.94;5085048;28;20024;-75
2021/01/24 00:12:07;;;;;;;33.55;21.58;;;;;;;0.72;97.56;99504.53;5076896;28;20421;-74
2021/01/24 00:14:32;;;;;;;36.70;20.77;;;;;;;0.75;96.65;99506.81;5079880;28;20027;-75
2021/01/24 00:16:58;;;;;;;30.80;19.33;;;;;;;0.75;97.21;99514.78;5078615;28;20029;-75
2021/01/24 00:19:23;;;;;;;33.53;20.88;;;;;;;0.74;97.69;99510.50;5086110;28;20307;-75
2021/01/24 00:21:49;;;;;;;31.00;18.63;;;;;;;0.75;97.66;99516.63;5075213;28;20035;-75
2021/01/24 00:24:14;;;;;;;24.00;16.13;;;;;;;0.76;96.56;99510.28;5071027;28;20032;-75
2021/01/24 00:26:40;;;;;;;26.33;15.77;;;;;;;0.74;96.08;99507.84;5074415;28;20041;-75
2021/01/24 00:29:05;;;;;;;19.58;11.32;;;;;;;0.79;94.06;99501.91;5074952;28;20325;-76
2021/01/24 00:31:30;;;;;;;18.87;10.87;;;;;;;0.75;94.59;99495.34;5067610;28;20534;-75
2021/01/24 00:33:56;;;;;;;15.57;9.77;;;;;;;0.74;94.22;99502.50;5076493;28;20036;-75
2021/01/24 00:36:21;;;;;;;11.80;8.13;;;;;;;0.79;93.89;99498.44;5074714;28;20032;-75
2021/01/24 00:38:47;;;;;;;12.17;7.90;;;;;;;0.81;94.26;99507.03;5071384;28;20134;-75
2021/01/24 00:41:16;;;;;;;14.15;8.25;;;;;;;0.85;93.03;99511.75;5069335;28;20031;-75
2021/01/24 00:43:42;;;;;;;20.70;9.05;;;;;;;0.92;93.07;99525.06;5074290;28;20032;-76
2021/01/24 00:46:07;;;;;;;16.58;9.18;;;;;;;0.95;93.93;99522.00;5074753;28;20325;-76
2021/01/24 00:48:39;;;;;;;20.17;9.50;;;;;;;0.95;93.89;99525.50;5074917;28;20173;-76
2021/01/24 00:51:05;;;;;;;18.23;10.82;;;;;;;0.97;94.00;99530.59;5063893;28;20468;-76
2021/01/24 00:53:34;;;;;;;;;;;;;;;1.00;94.49;99528.38;5060405;28;20036;-76
2021/01/24 00:55:59;;;;;;;16.25;10.70;;;;;;;1.02;95.23;99533.47;5056956;28;19912;-76
2021/01/24 00:58:25;;;;;;;21.33;12.77;;;;;;;1.01;95.80;99532.66;5062411;28;20446;-76
2021/01/24 01:00:50;;;;;;;24.15;12.77;;;;;;;1.02;95.72;99534.34;5065232;28;20028;-76
2021/01/24 01:03:17;;;;;;;21.57;12.57;;;;;;;1.02;95.76;99538.81;5071598;28;20321;-76
2021/01/24 01:05:43;;;;;;;20.20;12.77;;;;;;;1.03;95.93;99537.81;5090622;28;20056;-76
2021/01/24 01:08:08;;;;;;;;;;;;;;;1.07;95.59;99539.03;5058276;28;20084;-76
2021/01/24 01:10:34;;;;;;;19.83;12.85;;;;;;;1.05;95.66;99541.09;5070244;28;20277;-76
2021/01/24 01:13:00;;;;;;;25.17;13.23;;;;;;;1.07;96.31;99543.53;5071503;28;20423;-76
2021/01/24 01:15:25;;;;;;;23.13;13.68;;;;;;;1.07;96.62;99543.53;5085097;28;20089;-76
2021/01/24 01:17:51;;;;;;;24.67;13.17;;;;;;;1.06;96.21;99542.72;5082959;28;20032;-76
2021/01/24 01:20:17;;;;;;;22.57;13.57;;;;;;;1.07;96.20;99536.38;5089636;28;20271;-76
2021/01/24 01:22:42;;;;;;;26.23;14.68;;;;;;;1.06;96.55;99553.38;5065296;28;20286;-76
2021/01/24 01:25:08;;;;;;;28.03;15.00;;;;;;;1.05;96.97;99546.41;5068658;28;20122;-76
2021/01/24 01:27:34;;;;;;;25.67;14.77;;;;;;;1.06;96.95;99553.38;5072963;28;20418;-76
2021/01/24 01:30:02;;;;;;;28.33;16.43;;;;;;;1.07;96.82;99557.66;5068878;28;20016;-76
2021/01/24 01:32:31;;;;;;;25.52;15.60;;;;;;;1.07;96.63;99557.66;5068121;28;20507;-76
2021/01/24 01:34:57;;;;;;;25.48;15.77;;;;;;;1.08;96.79;99556.66;5072773;28;20073;-76
2021/01/24 01:37:22;;;;;;;28.03;15.97;;;;;;;1.08;97.17;99564.66;5075474;28;20025;-76
2021/01/24 01:39:47;;;;;;;24.33;16.03;;;;;;;1.10;96.02;99562.59;5080880;28;20103;-76
2021/01/24 01:42:16;;;;;;;29.47;16.50;;;;;;;1.10;96.87;99573.25;5073894;28;20150;-76
2021/01/24 01:44:43;;;;;;;28.00;16.50;;;;;;;1.12;97.48;99565.88;5069770;28;20021;-76
2021/01/24 01:47:19;;;;;;;28.08;16.90;;;;;;;1.15;97.02;99570.81;5087054;28;20274;-76
2021/01/24 01:49:45;;;;;;;29.27;16.95;;;;;;;1.16;97.08;99572.44;5069046;28;20469;-76
2021/01/24 01:52:11;;;;;;;29.38;16.63;;;;;;;1.17;97.21;99573.25;5072016;28;20032;-76
2021/01/24 01:54:36;;;;;;;25.50;15.60;;;;;;;1.18;96.83;99574.91;5083403;28;20032;-76
2021/01/24 01:57:01;;;;;;;27.73;16.37;;;;;;;1.18;97.35;99577.59;5083409;28;20329;-76
2021/01/24 01:59:27;;;;;;;27.67;17.33;;;;;;;1.18;97.01;99578.41;5072911;28;20036;-76
2021/01/24 02:02:10;;;;;;;28.47;17.90;;;;;;;1.20;97.27;99581.66;5077386;28;20114;-76
2021/01/24 02:04:54;;;;;;;32.45;19.80;;;;;;;1.17;97.79;99582.09;5074880;28;20079;-76
2021/01/24 02:07:28;;;;;;;31.35;18.70;;;;;;;1.14;97.23;99579.00;5085474;28;20028;-76
2021/01/24 02:10:02;;;;;;;33.40;20.98;;;;;;;1.13;97.97;99578.19;5073712;28;20029;-76
2021/01/24 02:12:44;;;;;;;35.25;20.05;;;;;;;1.13;98.08;99570.19;5072866;28;20024;-76
2021/01/24 02:15:14;;;;;;;31.85;19.25;;;;;;;1.11;98.38;99580.22;5077564;28;20441;-76
2021/01/24 02:17:44;;;;;;;30.92;18.48;;;;;;;1.08;98.22;99588.63;5077178;28;20020;-76
2021/01/24 02:20:17;;;;;;;27.58;17.45;;;;;;;1.08;98.04;99583.28;5080099;28;20035;-76
2021/01/24 02:22:49;;;;;;;31.77;18.08;;;;;;;1.06;98.19;99580.00;5073045;28;20341;-76
2021/01/24 02:25:25;;;;;;;38.22;19.70;;;;;;;1.06;97.98;99590.63;5074603;28;20171;-76
2021/01/24 02:27:59;;;;;;;38.38;19.77;;;;;;;1.07;98.49;99583.47;5074688;28;20024;-76
2021/01/24 02:30:28;;;;;;;35.60;17.98;;;;;;;1.09;98.18;99592.09;5074857;28;20035;-76
2021/01/24 02:33:03;;;;;;;34.67;19.17;;;;;;;1.10;98.97;99593.72;5077310;28;20360;-76
2021/01/24 02:35:32;;;;;;;34.38;19.63;;;;;;;1.06;98.73;99600.47;5075602;28;20026;-76
2021/01/24 02:38:00;;;;;;;34.58;20.63;;;;;;;1.04;98.58;99606.00;5073699;28;20052;-76
2021/01/24 02:40:28;;;;;;;37.60;20.30;;;;;;;1.01;98.80;99601.88;5075751;28;20351;-76
2021/01/24 02:42:56;;;;;;;39.70;20.33;;;;;;;1.02;98.95;99606.22;5089425;28;20024;-76
2021/01/24 02:45:22;;;;;;;40.78;21.00;;;;;;;1.03;99.05;99612.34;5080122;28;20032;-76
2021/01/24 02:47:48;;;;;;;39.88;20.98;;;;;;;1.01;98.62;99612.53;5072689;28;20078;-76
2021/01/24 02:50:14;;;;;;;37.45;20.55;;;;;;;1.02;99.07;99621.34;5081401;28;20425;-76
2021/01/24 02:52:41;;;;;;;40.10;19.92;;;;;;;1.01;98.86;99619.69;5071689;28;20032;-76
2021/01/24 02:55:08;;;;;;;31.67;19.65;;;;;;;1.04;98.56;99627.31;5079769;28;20065;-76
2021/01/24 02:57:33;;;;;;;39.20;21.02;;;;;;;1.03;99.29;99620.34;5078261;28;20085;-76
2021/01/24 02:59:59;;;;;;;37.13;20.20;;;;;;;1.01;98.93;99625.03;5086047;28;20029;-76
2021/01/24 03:02:24;;;;;;;39.97;21.07;;;;;;;1.00;98.33;99631.38;5080520;28;20024;-76
2021/01/24 03:04:50;;;;;;;38.20;20.17;;;;;;;1.01;98.83;99638.34;5083709;28;20286;-76
2021/01/24 03:07:15;;;;;;;37.13;18.87;;;;;;;1.00;98.17;99644.69;5082243;28;20032;-76
2021/01/24 03:09:41;;;;;;;41.00;19.67;;;;;;;0.98;98.21;99642.22;5094250;28;20026;-76
2021/01/24 03:12:08;;;;;;;36.23;19.87;;;;;;;0.99;98.34;99651.03;5085041;28;20117;-76
2021/01/24 03:14:34;;;;;;;40.25;20.58;;;;;;;0.97;98.20;99648.53;5089728;28;20024;-76
2021/01/24 03:17:02;;;;;;;36.08;19.52;;;;;;;0.99;98.53;99659.03;5083693;28;20029;-76
2021/01/24 03:19:29;;;;;;;40.08;20.23;;;;;;;1.01;98.11;99659.63;5089843;28;20078;-76
2021/01/24 03:21:57;;;;;;;40.55;21.23;;;;;;;0.98;97.90;99668.84;5074544;28;20058;-76
2021/01/24 03:24:23;;;;;;;39.22;19.85;;;;;;;1.00;98.55;99668.66;5080910;28;20036;-76
2021/01/24 03:26:50;;;;;;;38.75;20.75;;;;;;;1.00;98.21;99674.78;5076550;28;20032;-76
2021/01/24 03:29:15;;;;;;;36.70;19.42;;;;;;;1.01;98.11;99673.75;5090436;28;20036;-76
2021/01/24 03:31:42;;;;;;;34.63;18.93;;;;;;;1.01;97.90;99676.44;5076441;28;20286;-76
2021/01/24 03:34:17;;;;;;;32.88;17.60;;;;;;;1.01;97.29;99681.75;5083612;28;20417;-76
2021/01/24 03:36:43;;;;;;;31.83;16.35;;;;;;;1.03;97.60;99678.91;5077197;28;20028;-76
2021/01/24 03:39:08;;;;;;;33.13;16.90;;;;;;;1.05;96.69;99671.53;5081262;28;20363;-76
2021/01/24 03:41:33;;;;;;;30.80;15.70;;;;;;;1.07;97.31;99688.13;5078875;28;20024;-76
2021/01/24 03:43:59;;;;;;;24.37;13.77;;;;;;;1.09;96.83;99683.44;5083839;28;20042;-76
2021/01/24 03:46:24;;;;;;;27.83;15.17;;;;;;;1.09;97.25;99683.44;5076503;28;20037;-76
2021/01/24 03:48:49;;;;;;;27.93;14.17;;;;;;;1.08;97.02;99687.13;5065305;28;20108;-75
2021/01/24 03:51:15;;;;;;;27.20;14.70;;;;;;;1.10;97.27;99690.41;5070461;28;20418;-75
2021/01/24 03:53:40;;;;;;;28.43;15.70;;;;;;;1.10;96.69;99687.75;5081020;28;20115;-75
2021/01/24 03:56:05;;;;;;;26.20;13.90;;;;;;;1.12;96.82;99687.53;5077747;28;20081;-75
2021/01/24 03:58:30;;;;;;;25.47;15.63;;;;;;;1.11;96.87;99692.03;5076010;28;20032;-76
2021/01/24 04:00:56;;;;;;;30.07;14.87;;;;;;;1.11;97.31;99684.06;5077611;28;20025;-75
2021/01/24 04:03:21;;;;;;;23.83;14.07;;;;;;;1.12;97.04;99687.53;5090323;28;20029;-76
2021/01/24 04:05:46;;;;;;;22.50;13.93;;;;;;;1.12;96.83;99698.19;5078453;28;20360;-76
2021/01/24 04:08:13;;;;;;;24.23;13.37;;;;;;;1.11;96.85;99696.53;5069839;28;20071;-75
2021/01/24 04:10:39;;;;;;;22.88;13.43;;;;;;;1.13;96.41;99695.34;5095169;28;20077;-75
2021/01/24 04:13:04;;;;;;;24.23;14.53;;;;;;;1.14;96.71;99701.50;5067677;28;20229;-75
2021/01/24 04:15:29;;;;;;;29.37;15.57;;;;;;;1.14;96.12;99707.63;5091386;28;20451;-75
2021/01/24 04:17:55;;;;;;;25.33;14.10;;;;;;;1.10;96.80;99705.56;5073696;28;20306;-75
2021/01/24 04:20:20;;;;;;;25.03;15.53;;;;;;;1.10;97.00;99706.38;5082239;28;20102;-75
2021/01/24 04:22:45;;;;;;;25.27;14.83;;;;;;;1.11;97.18;99701.88;5069893;28;20031;-76
2021/01/24 04:25:13;;;;;;;29.47;16.23;;;;;;;1.10;96.60;99705.56;5081720;28;20055;-75
2021/01/24 04:27:38;;;;;;;29.48;16.13;;;;;;;1.08;97.26;99713.75;5067991;28;20037;-75
2021/01/24 04:30:05;;;;;;;33.80;17.37;;;;;;;1.10;97.38;99711.69;5081345;28;20100;-75
2021/01/24 04:32:30;;;;;;;;;;;;;;;1.12;97.08;99714.16;5078790;28;20017;-75
2021/01/24 04:34:55;;;;;;;26.50;15.23;;;;;;;1.12;96.72;99714.16;5082645;28;20202;-76
2021/01/24 04:37:20;;;;;;;28.27;14.97;;;;;;;1.12;97.00;99720.31;5081800;28;20275;-76
2021/01/24 04:39:46;;;;;;;24.43;14.30;;;;;;;1.13;96.79;99713.97;5089219;28;20413;-76
2021/01/24 04:42:11;;;;;;;25.90;14.13;;;;;;;1.16;97.47;99721.56;5086760;28;20085;-75
2021/01/24 04:44:36;;;;;;;27.13;14.00;;;;;;;1.14;97.24;99736.91;5080633;28;20415;-75
2021/01/24 04:47:02;;;;;;;22.77;13.73;;;;;;;1.16;96.52;99731.38;5085496;28;20122;-75
2021/01/24 04:49:29;;;;;;;22.98;13.90;;;;;;;1.15;96.72;99738.56;5069621;28;20033;-75
2021/01/24 04:51:54;;;;;;;27.23;13.45;;;;;;;1.15;97.40;99738.56;5072714;28;20038;-75
2021/01/24 04:54:20;;;;;;;20.33;13.55;;;;;;;1.16;96.56;99742.03;5070541;28;20322;-75
2021/01/24 04:56:46;;;;;;;17.57;12.20;;;;;;;1.14;96.39;99733.44;5084171;28;20105;-75
2021/01/24 04:59:11;;;;;;;19.43;12.03;;;;;;;1.12;96.85;99740.78;5079518;28;20353;-75
2021/01/24 05:01:39;;;;;;;21.57;12.50;;;;;;;1.12;97.55;99744.25;5088293;28;20039;-75
2021/01/24 05:04:06;;;;;;;18.70;12.20;;;;;;;1.14;97.03;99746.75;5096409;28;20444;-75
2021/01/24 05:06:31;;;;;;;15.50;10.50;;;;;;;1.15;96.61;99745.72;5085830;28;20062;-75
2021/01/24 05:09:00;;;;;;;13.57;10.33;;;;;;;1.17;96.64;99749.84;5076589;28;20056;-75
2021/01/24 05:11:26;;;;;;;14.18;9.98;;;;;;;1.17;96.62;99757.84;5086612;28;20046;-75
2021/01/24 05:13:52;;;;;;;14.93;9.27;;;;;;;1.19;96.40;99758.47;5096502;28;20328;-75
2021/01/24 05:16:20;;;;;;;13.07;8.47;;;;;;;1.22;96.06;99763.41;5076396;28;20099;-75
2021/01/24 05:18:55;;;;;;;11.35;7.20;;;;;;;1.22;96.44;99762.56;5076282;28;20024;-75
2021/01/24 05:21:21;;;;;;;6.78;5.35;;;;;;;1.20;95.80;99761.94;5067284;28;20025;-75
2021/01/24 05:23:47;;;;;;;8.33;5.30;;;;;;;1.19;96.03;99770.94;5079105;28;20028;-75
2021/01/24 05:26:12;;;;;;;6.72;4.40;;;;;;;1.16;95.88;99769.50;5074038;28;20059;-75
2021/01/24 05:28:46;;;;;;;6.30;4.53;;;;;;;1.19;95.74;99774.44;5079817;28;20020;-75
2021/01/24 05:31:12;;;;;;;7.43;4.10;;;;;;;1.17;95.38;99772.97;5067411;28;20108;-75
2021/01/24 05:33:45;;;;;;;5.50;3.43;;;;;;;1.16;95.37;99776.66;5093086;28;20111;-75
2021/01/24 05:36:10;;;;;;;5.35;2.60;;;;;;;1.15;95.10;99781.16;5079117;28;20571;-75
2021/01/24 05:38:35;;;;;;;5.07;2.40;;;;;;;1.17;94.42;99779.16;5079244;28;20028;-75
2021/01/24 05:41:03;;;;;;;3.30;2.10;;;;;;;1.16;94.17;99777.47;5079159;28;20024;-75
2021/01/24 05:43:34;;;;;;;4.38;2.50;;;;;;;1.11;95.00;99779.91;5079857;28;20039;-75
2021/01/24 05:46:00;;;;;;;2.72;2.05;;;;;;;1.09;94.67;99776.63;5082777;28;20025;-75
2021/01/24 05:48:25;;;;;;;2.80;1.50;;;;;;;1.06;94.08;99777.00;5078870;28;20027;-75
2021/01/24 05:50:51;;;;;;;2.87;1.63;;;;;;;1.02;94.46;99781.06;5065922;28;20333;-75
2021/01/24 05:53:17;;;;;;;3.85;1.48;;;;;;;0.97;94.55;99786.16;5067020;28;20096;-75
2021/01/24 05:55:43;;;;;;;2.20;1.30;;;;;;;0.95;94.70;99798.84;5095978;28;20032;-75
2021/01/24 05:58:16;;;;;;;3.67;1.38;;;;;;;0.91;95.11;99786.94;5075914;28;20028;-75
2021/01/24 06:00:50;;;;;;;2.17;0.93;;;;;;;0.87;94.91;99785.69;5085903;28;20433;-75
2021/01/24 06:03:17;;;;;;;1.45;0.98;;;;;;;0.81;94.97;99797.09;5059933;28;20037;-75
2021/01/24 06:05:42;;;;;;;1.35;0.98;;;;;;;0.76;95.08;99806.47;5082935;28;20087;-75
2021/01/24 06:08:09;;;;;;;2.85;0.93;;;;;;;0.74;94.96;99811.19;5081235;28;20028;-75
2021/01/24 06:10:38;;;;;;;1.90;1.17;;;;;;;0.74;94.60;99818.34;5088468;28;20122;-76
2021/01/24 06:13:05;;;;;;;2.05;0.90;;;;;;;0.71;94.15;99821.38;5069239;28;20032;-75
2021/01/24 06:15:34;;;;;;;2.00;1.13;;;;;;;0.67;95.30;99812.13;5070083;28;20036;-75
2021/01/24 06:18:00;;;;;;;1.90;1.48;;;;;;;0.64;95.02;99818.69;5082615;28;20039;-75
2021/01/24 06:21:00;;;;;;;3.35;2.08;;;;;;;0.62;95.72;99822.53;5091411;28;20044;-75
2021/01/24 06:23:47;;;;;;;4.03;2.80;;;;;;;0.58;95.70;99832.72;5068112;28;20107;-75
2021/01/24 06:26:15;;;;;;;5.03;2.25;;;;;;;0.57;96.01;99846.22;5081072;28;20044;-75
2021/01/24 06:28:47;;;;;;;2.60;1.63;;;;;;;0.50;96.22;99847.00;5079146;28;20107;-75
2021/01/24 06:31:14;;;;;;;1.52;1.13;;;;;;;0.52;95.91;99852.13;5091087;28;20328;-75
2021/01/24 06:33:44;;;;;;;1.83;1.05;;;;;;;0.46;96.30;99856.38;5096631;28;20103;-75
2021/01/24 06:36:09;;;;;;;1.17;0.80;;;;;;;0.42;96.50;99854.25;5082317;28;20031;-75
2021/01/24 06:38:37;;;;;;;1.92;1.02;;;;;;;0.39;96.67;99852.81;5086861;28;20333;-75
2021/01/24 06:41:05;;;;;;;3.20;1.10;;;;;;;0.35;96.83;99861.38;5091009;28;20039;-75
2021/01/24 06:43:34;;;;;;;3.78;1.75;;;;;;;0.33;97.39;99863.38;5079204;28;20441;-75
2021/01/24 06:46:00;;;;;;;2.67;1.33;;;;;;;0.32;97.23;99867.88;5075380;28;20053;-75
2021/01/24 06:48:42;;;;;;;4.63;1.57;;;;;;;0.29;96.75;99867.41;5095850;28;20059;-75
2021/01/24 06:51:37;;;;;;;3.95;1.35;;;;;;;0.31;96.78;99876.06;5082963;28;20021;-75
2021/01/24 06:54:07;;;;;;;2.90;1.45;;;;;;;0.29;97.13;99873.56;5071296;28;20103;-75
2021/01/24 06:56:36;;;;;;;2.53;1.60;;;;;;;0.30;97.15;99877.06;5070846;28;20112;-75
2021/01/24 06:59:02;;;;;;;4.13;2.00;;;;;;;0.28;96.99;99887.03;5091163;28;20028;-75
2021/01/24 07:01:29;;;;;;;3.42;2.10;;;;;;;0.26;97.15;99900.53;5091993;28;20024;-75
2021/01/24 07:04:16;;;;;;;4.53;2.85;;;;;;;0.31;97.35;99897.31;5080352;28;20032;-75
2021/01/24 07:06:42;;;;;;;7.25;3.80;;;;;;;0.29;97.39;99886.84;5072562;28;20118;-75
2021/01/24 07:09:43;;;;;;;6.87;4.30;;;;;;;0.28;97.52;99900.34;5092016;28;20032;-75
2021/01/24 07:12:11;;;;;;;7.18;4.45;;;;;;;0.25;97.58;99904.22;5044876;28;20389;-75
2021/01/24 07:14:39;;;;;;;12.05;5.38;;;;;;;0.23;97.54;99900.91;5055950;28;20036;-75
2021/01/24 07:17:05;;;;;;;11.43;6.57;;;;;;;0.23;97.67;99912.38;5053383;28;20029;-75
2021/01/24 07:19:32;;;;;;;;;;;;;;;0.23;97.95;99923.00;5056130;28;20039;-75
2021/01/24 07:21:58;;;;;;;10.43;6.28;;;;;;;0.20;97.84;99922.56;5052956;28;19917;-75
2021/01/24 07:24:25;;;;;;;9.77;7.70;;;;;;;0.19;98.38;99929.69;5061185;28;20029;-75
2021/01/24 07:26:54;;;;;;;13.70;7.95;;;;;;;0.16;98.53;99930.09;5066315;28;20072;-75
2021/01/24 07:29:20;;;;;;;12.90;9.35;;;;;;;0.16;98.53;99937.25;5040252;28;20061;-75
2021/01/24 07:31:46;;;;;;;11.50;8.70;;;;;;;0.11;98.33;99945.75;5065656;28;20029;-75
2021/01/24 07:34:13;;;;;;;14.38;10.10;;;;;;;0.08;98.07;99945.31;5060127;28;20090;-75
2021/01/24 07:36:38;;;;;;;;;;;;;;;0.07;98.58;99952.47;5050978;28;20120;-76
2021/01/24 07:39:04;;;;;;;15.85;10.65;;;;;;;0.04;99.09;99954.66;5072095;28;19912;-75
2021/01/24 07:41:32;;;;;;;15.82;11.60;;;;;;;0.02;98.73;99956.69;5058789;28;20060;-75
2021/01/24 07:43:57;;;;;;;19.02;12.40;;;;;;;0.01;98.67;99955.03;5065458;28;20059;-75
2021/01/24 07:46:23;;;;;;;16.83;11.83;;;;;;;0.01;99.18;99957.69;5064396;28;20065;-75
2021/01/24 07:48:49;;;;;;;16.33;11.07;;;;;;;-0.01;99.00;99961.34;5089753;28;20036;-75
2021/01/24 07:51:15;;;;;;;18.55;11.40;;;;;;;-0.02;98.76;99966.84;5074971;28;20020;-75
2021/01/24 07:53:40;;;;;;;;;;;;;;;-0.02;97.71;99972.16;5076979;28;20063;-75
2021/01/24 07:56:06;;;;;;;16.23;12.13;;;;;;;-0.04;98.84;99974.19;5074872;28;19948;-75
2021/01/24 07:58:32;;;;;;;15.53;12.80;;;;;;;-0.03;98.82;99975.84;5093165;28;20039;-75
2021/01/24 08:00:57;;;;;;;21.67;13.38;;;;;;;-0.05;98.75;99983.16;5078026;28;20430;-75
2021/01/24 08:03:23;;;;;;;19.97;13.73;;;;;;;-0.06;99.08;99986.81;5070030;28;20051;-75
2021/01/24 08:05:49;;;;;;;19.13;14.40;;;;;;;-0.08;99.36;99986.19;5086058;28;20095;-75
2021/01/24 08:08:14;;;;;;;22.67;16.27;;;;;;;-0.10;99.14;99989.03;5096491;28;20352;-75
2021/01/24 08:10:40;;;;;;;21.15;15.98;;;;;;;-0.09;99.77;99997.84;5079453;28;20141;-75
2021/01/24 08:13:05;;;;;;;24.63;17.10;;;;;;;-0.11;99.96;99994.53;5077022;28;20108;-75
2021/01/24 08:15:31;;;;;;;23.80;17.50;;;;;;;-0.12;99.75;99999.00;5081511;28;20028;-75
2021/01/24 08:17:58;;;;;;;28.07;17.10;;;;;;;-0.15;99.87;100002.03;5090034;28;20027;-75
2021/01/24 08:20:26;;;;;;;28.23;17.48;;;;;;;-0.12;99.97;99999.00;5085602;28;20021;-75
2021/01/24 08:22:52;;;;;;;27.02;17.40;;;;;;;-0.16;100.00;100003.03;5087718;28;20028;-75
2021/01/24 08:25:18;;;;;;;23.73;18.15;;;;;;;-0.15;100.00;99998.53;5078160;28;20059;-75
2021/01/24 08:27:45;;;;;;;21.67;16.80;;;;;;;-0.13;100.00;100007.19;5085161;28;20032;-75
2021/01/24 08:30:11;;;;;;;20.75;16.67;;;;;;;-0.11;100.00;100005.97;5084324;28;20028;-75
2021/01/24 08:32:39;;;;;;;20.92;14.95;;;;;;;-0.06;99.90;100010.75;5073033;28;20024;-75
2021/01/24 08:35:05;;;;;;;20.30;16.02;;;;;;;-0.06;99.92;100013.41;5077442;28;20028;-75
2021/01/24 08:37:31;;;;;;;23.50;14.25;;;;;;;-0.05;100.00;100015.91;5074458;28;20067;-75
2021/01/24 08:39:57;;;;;;;21.17;14.77;;;;;;;-0.03;100.00;100018.38;5088595;28;20068;-76
2021/01/24 08:42:22;;;;;;;23.02;14.68;;;;;;;0.01;100.00;100021.50;5071444;28;20037;-75
2021/01/24 08:44:58;;;;;;;20.27;13.27;;;;;;;0.01;99.93;100032.13;5065419;28;20040;-75
2021/01/24 08:47:24;;;;;;;19.35;12.18;;;;;;;0.01;100.00;100035.59;5078477;28;20032;-75
2021/01/24 08:49:49;;;;;;;15.80;11.47;;;;;;;0.05;99.71;100036.91;5068731;28;20441;-75
2021/01/24 08:52:20;;;;;;;17.47;11.47;;;;;;;0.11;99.84;100041.47;5070758;28;20050;-75
2021/01/24 08:54:45;;;;;;;15.52;9.90;;;;;;;0.21;99.65;100041.22;5067349;28;20028;-74
2021/01/24 08:57:16;;;;;;;14.80;9.77;;;;;;;0.35;99.41;100043.03;5085456;28;20310;-74
2021/01/24 08:59:50;;;;;;;15.13;9.25;;;;;;;0.45;98.92;100037.44;5070116;28;20032;-74
2021/01/24 09:02:37;;;;;;;15.85;9.23;;;;;;;0.51;98.56;100042.84;5066150;28;20037;-74
2021/01/24 09:05:08;;;;;;;14.13;8.85;;;;;;;0.57;98.47;100043.91;5066211;28;20437;-74
2021/01/24 09:07:39;;;;;;;18.80;8.05;;;;;;;0.58;98.14;100048.22;5083854;28;20048;-74
2021/01/24 09:10:17;;;;;;;14.77;8.95;;;;;;;0.62;98.35;100046.84;5078824;28;20106;-74
2021/01/24 09:12:47;;;;;;;16.00;8.35;;;;;;;0.72;98.43;100054.53;5075739;28;20037;-75
2021/01/24 09:15:13;;;;;;;12.70;7.97;;;;;;;0.79;97.80;100058.13;5060605;28;20082;-75
2021/01/24 09:17:38;;;;;;;16.27;8.57;;;;;;;0.87;97.32;100054.50;5078664;28;20032;-74
2021/01/24 09:20:04;;;;;;;14.37;8.83;;;;;;;0.97;97.80;100057.69;5084889;28;20031;-75
2021/01/24 09:22:30;;;;;;;;;;;;;;;1.07;96.63;100047.56;5088102;28;20036;-75
2021/01/24 09:24:55;;;;;;;17.33;9.80;;;;;;;1.17;96.60;100058.75;5078585;28;20004;-75
2021/01/24 09:27:20;;;;;;;19.07;8.00;;;;;;;1.27;95.03;100058.47;5086814;28;20281;-75
2021/01/24 09:29:46;;;;;;;17.40;9.50;;;;;;;1.45;95.15;100060.66;5073338;28;20035;-75
2021/01/24 09:32:11;;;;;;;17.43;8.13;;;;;;;1.63;95.09;100061.03;5077602;28;20031;-75
2021/01/24 09:34:37;;;;;;;13.07;7.80;;;;;;;1.70;93.86;100071.75;5087724;28;20046;-75
2021/01/24 09:37:03;;;;;;;16.40;7.93;;;;;;;1.76;93.86;100079.81;5064134;28;20060;-76
2021/01/24 09:39:28;;;;;;;13.52;8.95;;;;;;;1.67;92.82;100064.97;5072332;28;20377;-75
2021/01/24 09:41:54;;;;;;;15.23;7.77;;;;;;;1.57;93.04;100075.13;5078854;28;20428;-75
2021/01/24 09:44:20;;;;;;;12.63;7.03;;;;;;;1.47;94.10;100071.97;5078036;28;20035;-75
2021/01/24 09:46:45;;;;;;;15.60;7.40;;;;;;;1.44;93.91;100075.00;5075454;28;20051;-75
2021/01/24 09:49:11;;;;;;;15.17;8.17;;;;;;;1.51;93.98;100078.53;5074159;28;20410;-75
2021/01/24 09:51:36;;;;;;;15.30;7.53;;;;;;;1.60;93.80;100073.91;5072730;28;20295;-75
2021/01/24 09:54:02;;;;;;;12.25;7.00;;;;;;;1.71;93.10;100076.91;5073325;28;20028;-75
2021/01/24 09:56:28;;;;;;;13.35;7.95;;;;;;;1.77;92.48;100083.31;5079518;28;20041;-75
2021/01/24 09:58:55;;;;;;;17.70;7.75;;;;;;;1.86;92.63;100089.34;5088899;28;20141;-76
2021/01/24 10:01:21;;;;;;;;;;;;;;;1.94;92.83;100092.66;5069363;28;20075;-75
2021/01/24 10:03:47;;;;;;;15.82;7.10;;;;;;;2.02;91.39;100094.38;5073140;28;19912;-75
2021/01/24 10:06:13;;;;;;;15.55;6.75;;;;;;;2.06;91.68;100093.78;5076816;28;20055;-75
2021/01/24 10:08:38;;;;;;;16.98;7.60;;;;;;;2.15;91.49;100089.16;5076029;28;20058;-75
2021/01/24 10:11:04;;;;;;;15.60;6.73;;;;;;;2.18;91.17;100083.41;5075077;28;20081;-75
2021/01/24 10:13:30;;;;;;;14.40;7.57;;;;;;;2.24;90.60;100082.63;5078522;28;20331;-75
2021/01/24 10:15:55;;;;;;;13.20;7.10;;;;;;;2.22;89.70;100084.66;5077865;28;20021;-75
2021/01/24 10:18:21;;;;;;;14.80;6.67;;;;;;;2.28;90.57;100078.53;5077039;28;20039;-75
2021/01/24 10:20:47;;;;;;;15.15;7.65;;;;;;;2.32;90.43;100085.13;5078319;28;20481;-75
2021/01/24 10:23:13;;;;;;;12.73;6.67;;;;;;;2.37;89.47;100091.75;5091900;28;20116;-75
2021/01/24 10:25:38;;;;;;;14.80;6.70;;;;;;;2.42;89.30;100094.66;5078263;28;20048;-75
2021/01/24 10:28:04;;;;;;;14.30;6.53;;;;;;;2.50;89.49;100099.84;5077982;28;20024;-75
2021/01/24 10:30:30;;;;;;;14.65;7.07;;;;;;;2.59;87.58;100096.00;5075454;28;20028;-75
2021/01/24 10:32:55;;;;;;;13.23;5.77;;;;;;;2.68;86.90;100092.09;5078630;28;20039;-75
2021/01/24 10:35:22;;;;;;;11.63;5.33;;;;;;;2.80;84.84;100098.53;5077850;28;20031;-75
2021/01/24 10:37:47;;;;;;;12.90;5.85;;;;;;;2.86;84.96;100096.09;5073688;28;20033;-75
2021/01/24 10:40:13;;;;;;;14.17;5.47;;;;;;;2.95;83.60;100095.72;5080671;28;20020;-75
2021/01/24 10:42:39;;;;;;;10.77;5.03;;;;;;;3.09;82.21;100097.44;5092048;28;20012;-74
2021/01/24 10:45:05;;;;;;;;;;;;;;;3.25;83.29;100098.91;5088319;28;20426;-74
2021/01/24 10:47:31;;;;;;;13.52;5.22;;;;;;;3.31;80.94;100097.28;5078036;28;19908;-75
2021/01/24 10:49:56;;;;;;;16.40;4.93;;;;;;;3.53;82.58;100100.63;5075538;28;20043;-75
2021/01/24 10:52:22;;;;;;;11.77;5.13;;;;;;;3.59;82.38;100095.28;5067724;28;20025;-75
2021/01/24 10:54:47;;;;;;;8.50;4.33;;;;;;;3.56;78.92;100098.38;5077274;28;20023;-75
2021/01/24 10:57:12;;;;;;;11.07;4.77;;;;;;;3.52;79.34;100094.47;5070174;28;20055;-77
2021/01/24 10:59:37;;;;;;;10.10;5.00;;;;;;;3.54;80.60;100100.41;5072405;28;20048;-75
2021/01/24 11:02:03;;;;;;;14.00;5.20;;;;;;;3.48;80.02;100105.75;5074960;28;20032;-75
2021/01/24 11:04:32;;;;;;;11.83;4.87;;;;;;;3.38;79.93;100097.31;5075824;28;20028;-75
2021/01/24 11:06:57;;;;;;;10.70;5.43;;;;;;;3.36;80.81;100102.84;5075338;28;20028;-75
2021/01/24 11:09:24;;;;;;;10.77;5.95;;;;;;;3.35;79.87;100090.50;5075921;28;20032;-75
2021/01/24 11:11:49;;;;;;;13.57;6.07;;;;;;;3.36;80.50;100090.31;5076627;28;20020;-75
2021/01/24 11:14:15;;;;;;;18.27;7.20;;;;;;;3.44;80.68;100094.66;5073526;28;20418;-74
2021/01/24 11:16:40;;;;;;;19.97;6.33;;;;;;;3.43;79.46;100097.53;5078342;28;20145;-75
2021/01/24 11:19:05;;;;;;;16.33;5.20;;;;;;;3.42;79.38;100085.19;5075167;28;20052;-75
2021/01/24 11:21:30;;;;;;;9.23;5.10;;;;;;;3.36;78.16;100086.81;5075672;28;20025;-74
2021/01/24 11:23:56;;;;;;;12.17;4.73;;;;;;;3.42;78.91;100085.19;5075213;28;20033;-75
2021/01/24 11:26:22;;;;;;;14.80;5.20;;;;;;;3.39;77.71;100091.75;5086018;28;20036;-75
2021/01/24 11:28:47;;;;;;;16.55;5.57;;;;;;;3.33;79.08;100085.38;5092179;28;20404;-75
2021/01/24 11:31:13;;;;;;;10.53;4.67;;;;;;;3.32;77.48;100091.75;5093315;28;20028;-75